sensor_id;sensor_type;location;lat;lon;timestamp;temperature;humidity
44731;DHT22;30458;47.448;19.032;2023-07-20T00:06:23;26.60;91.30
44731;DHT22;30458;47.448;19.032;2023-07-20T00:16:24;26.50;91.40
44731;DHT22;30458;47.448;19.032;2023-07-20T00:26:27;26.30;91.40
44731;DHT22;30458;47.448;19.032;2023-07-20T00:36:28;26.20;91.60
44731;DHT22;30458;47.448;19.032;2023-07-20T00:46:34;26.10;91.90
44731;DHT22;30458;47.448;19.032;2023-07-20T00:56:37;25.90;92.30
44731;DHT22;30458;47.448;19.032;2023-07-20T01:06:47;25.70;92.40
44731;DHT22;30458;47.448;19.032;2023-07-20T01:16:49;25.60;92.70
44731;DHT22;30458;47.448;19.032;2023-07-20T01:37:27;25.40;93.00
44731;DHT22;30458;47.448;19.032;2023-07-20T01:47:32;25.30;93.10
44731;DHT22;30458;47.448;19.032;2023-07-20T01:57:33;25.10;93.50
44731;DHT22;30458;47.448;19.032;2023-07-20T02:07:34;25.10;93.60
44731;DHT22;30458;47.448;19.032;2023-07-20T02:17:35;25.20;93.70
44731;DHT22;30458;47.448;19.032;2023-07-20T02:27:37;24.90;94.10
44731;DHT22;30458;47.448;19.032;2023-07-20T02:37:41;24.90;94.00
44731;DHT22;30458;47.448;19.032;2023-07-20T02:47:42;24.80;94.30
44731;DHT22;30458;47.448;19.032;2023-07-20T02:57:45;24.80;94.30
44731;DHT22;30458;47.448;19.032;2023-07-20T03:07:46;24.90;93.70
44731;DHT22;30458;47.448;19.032;2023-07-20T03:17:47;25.00;93.60
44731;DHT22;30458;47.448;19.032;2023-07-20T03:27:48;25.00;93.60
44731;DHT22;30458;47.448;19.032;2023-07-20T03:37:49;25.10;93.30
44731;DHT22;30458;47.448;19.032;2023-07-20T03:47:52;25.20;93.10
44731;DHT22;30458;47.448;19.032;2023-07-20T03:57:53;25.40;93.00
44731;DHT22;30458;47.448;19.032;2023-07-20T04:07:56;25.40;92.50
44731;DHT22;30458;47.448;19.032;2023-07-20T04:17:59;25.20;92.00
44731;DHT22;30458;47.448;19.032;2023-07-20T04:28:03;25.00;92.30
44731;DHT22;30458;47.448;19.032;2023-07-20T04:38:04;25.10;91.60
44731;DHT22;30458;47.448;19.032;2023-07-20T04:48:10;25.50;91.40
44731;DHT22;30458;47.448;19.032;2023-07-20T04:58:24;26.50;90.10
44731;DHT22;30458;47.448;19.032;2023-07-20T05:08:29;27.70;87.70
44731;DHT22;30458;47.448;19.032;2023-07-20T05:18:30;29.10;84.70
44731;DHT22;30458;47.448;19.032;2023-07-20T05:28:32;30.50;81.60
44731;DHT22;30458;47.448;19.032;2023-07-20T05:38:33;31.40;79.10
44731;DHT22;30458;47.448;19.032;2023-07-20T05:48:33;31.10;79.20
44731;DHT22;30458;47.448;19.032;2023-07-20T05:58:34;30.80;78.30
44731;DHT22;30458;47.448;19.032;2023-07-20T06:08:35;30.80;78.80
44731;DHT22;30458;47.448;19.032;2023-07-20T06:18:36;31.20;79.30
44731;DHT22;30458;47.448;19.032;2023-07-20T06:28:41;31.70;78.20
44731;DHT22;30458;47.448;19.032;2023-07-20T06:38:49;31.70;75.60
44731;DHT22;30458;47.448;19.032;2023-07-20T06:48:50;31.00;77.00
44731;DHT22;30458;47.448;19.032;2023-07-20T06:58:53;31.20;76.60
44731;DHT22;30458;47.448;19.032;2023-07-20T07:08:56;31.30;76.20
44731;DHT22;30458;47.448;19.032;2023-07-20T07:18:59;30.90;77.10
44731;DHT22;30458;47.448;19.032;2023-07-20T07:29:00;31.30;77.00
44731;DHT22;30458;47.448;19.032;2023-07-20T07:39:00;31.10;73.50
44731;DHT22;30458;47.448;19.032;2023-07-20T07:49:04;31.10;74.50
44731;DHT22;30458;47.448;19.032;2023-07-20T07:59:05;31.30;74.40
44731;DHT22;30458;47.448;19.032;2023-07-20T08:09:05;31.60;73.20
44731;DHT22;30458;47.448;19.032;2023-07-20T08:19:06;31.30;73.00
44731;DHT22;30458;47.448;19.032;2023-07-20T08:29:07;31.20;73.70
44731;DHT22;30458;47.448;19.032;2023-07-20T08:39:08;31.20;72.60
44731;DHT22;30458;47.448;19.032;2023-07-20T08:49:11;31.00;73.00
44731;DHT22;30458;47.448;19.032;2023-07-20T08:59:17;31.00;73.30
44731;DHT22;30458;47.448;19.032;2023-07-20T09:09:18;30.90;73.70
44731;DHT22;30458;47.448;19.032;2023-07-20T09:19:19;30.50;72.50
44731;DHT22;30458;47.448;19.032;2023-07-20T09:29:20;30.50;73.20
44731;DHT22;30458;47.448;19.032;2023-07-20T09:39:23;30.50;73.20
44731;DHT22;30458;47.448;19.032;2023-07-20T09:49:24;30.40;72.30
44731;DHT22;30458;47.448;19.032;2023-07-20T09:59:25;30.60;72.40
44731;DHT22;30458;47.448;19.032;2023-07-20T10:09:26;30.60;71.80
44731;DHT22;30458;47.448;19.032;2023-07-20T10:29:47;30.40;72.90
44731;DHT22;30458;47.448;19.032;2023-07-20T10:39:48;30.40;73.40
44731;DHT22;30458;47.448;19.032;2023-07-20T10:49:59;30.30;74.30
44731;DHT22;30458;47.448;19.032;2023-07-20T11:00:10;30.40;74.30
44731;DHT22;30458;47.448;19.032;2023-07-20T11:10:14;30.30;74.50
44731;DHT22;30458;47.448;19.032;2023-07-20T11:20:16;30.20;73.10
44731;DHT22;30458;47.448;19.032;2023-07-20T11:30:16;30.20;73.40
44731;DHT22;30458;47.448;19.032;2023-07-20T11:40:20;30.10;72.90
44731;DHT22;30458;47.448;19.032;2023-07-20T11:50:20;30.10;72.00
44731;DHT22;30458;47.448;19.032;2023-07-20T12:00:24;29.80;71.80
44731;DHT22;30458;47.448;19.032;2023-07-20T12:10:27;30.60;71.30
44731;DHT22;30458;47.448;19.032;2023-07-20T12:30:34;30.60;70.40
44731;DHT22;30458;47.448;19.032;2023-07-20T12:40:38;30.70;69.60
44731;DHT22;30458;47.448;19.032;2023-07-20T12:50:39;31.30;70.00
44731;DHT22;30458;47.448;19.032;2023-07-20T13:00:44;31.00;67.40
44731;DHT22;30458;47.448;19.032;2023-07-20T13:10:44;30.70;68.90
44731;DHT22;30458;47.448;19.032;2023-07-20T13:20:45;30.40;68.10
44731;DHT22;30458;47.448;19.032;2023-07-20T13:30:46;30.20;68.70
44731;DHT22;30458;47.448;19.032;2023-07-20T13:40:49;30.20;68.60
44731;DHT22;30458;47.448;19.032;2023-07-20T13:50:50;30.10;69.90
44731;DHT22;30458;47.448;19.032;2023-07-20T14:00:54;30.00;67.50
44731;DHT22;30458;47.448;19.032;2023-07-20T14:10:59;30.00;68.60
44731;DHT22;30458;47.448;19.032;2023-07-20T14:21:00;30.00;67.80
44731;DHT22;30458;47.448;19.032;2023-07-20T14:31:03;30.10;68.90
44731;DHT22;30458;47.448;19.032;2023-07-20T14:41:04;30.10;68.50
44731;DHT22;30458;47.448;19.032;2023-07-20T14:51:06;30.00;69.00
44731;DHT22;30458;47.448;19.032;2023-07-20T15:01:09;30.10;68.40
44731;DHT22;30458;47.448;19.032;2023-07-20T15:11:12;30.00;68.60
44731;DHT22;30458;47.448;19.032;2023-07-20T15:21:13;29.90;68.30
44731;DHT22;30458;47.448;19.032;2023-07-20T15:31:14;29.90;68.30
44731;DHT22;30458;47.448;19.032;2023-07-20T15:41:15;29.90;67.80
44731;DHT22;30458;47.448;19.032;2023-07-20T15:51:16;29.80;68.20
44731;DHT22;30458;47.448;19.032;2023-07-20T16:01:16;29.80;68.80
44731;DHT22;30458;47.448;19.032;2023-07-20T16:11:20;29.70;67.20
44731;DHT22;30458;47.448;19.032;2023-07-20T16:21:24;29.60;67.90
44731;DHT22;30458;47.448;19.032;2023-07-20T16:31:27;29.60;68.90
44731;DHT22;30458;47.448;19.032;2023-07-20T16:41:28;29.40;69.30
44731;DHT22;30458;47.448;19.032;2023-07-20T16:51:33;29.30;69.40
44731;DHT22;30458;47.448;19.032;2023-07-20T17:01:37;29.20;69.70
44731;DHT22;30458;47.448;19.032;2023-07-20T17:11:40;29.20;70.00
44731;DHT22;30458;47.448;19.032;2023-07-20T17:21:41;29.10;70.40
44731;DHT22;30458;47.448;19.032;2023-07-20T17:31:46;29.10;69.80
44731;DHT22;30458;47.448;19.032;2023-07-20T17:41:49;28.90;69.90
44731;DHT22;30458;47.448;19.032;2023-07-20T17:51:50;28.90;70.20
44731;DHT22;30458;47.448;19.032;2023-07-20T18:01:51;28.80;70.80
44731;DHT22;30458;47.448;19.032;2023-07-20T18:11:52;28.60;71.20
44731;DHT22;30458;47.448;19.032;2023-07-20T18:21:55;28.70;71.70
44731;DHT22;30458;47.448;19.032;2023-07-20T18:31:59;28.20;72.80
44731;DHT22;30458;47.448;19.032;2023-07-20T18:42:00;27.90;74.10
44731;DHT22;30458;47.448;19.032;2023-07-20T18:52:04;27.90;73.80
44731;DHT22;30458;47.448;19.032;2023-07-20T19:02:08;27.80;74.80
44731;DHT22;30458;47.448;19.032;2023-07-20T19:12:11;27.70;76.20
44731;DHT22;30458;47.448;19.032;2023-07-20T19:22:14;27.50;75.10
44731;DHT22;30458;47.448;19.032;2023-07-20T19:32:16;27.20;75.50
44731;DHT22;30458;47.448;19.032;2023-07-20T19:42:17;27.00;75.60
44731;DHT22;30458;47.448;19.032;2023-07-20T19:52:18;27.00;76.00
44731;DHT22;30458;47.448;19.032;2023-07-20T20:02:22;26.90;76.60
44731;DHT22;30458;47.448;19.032;2023-07-20T20:12:22;26.80;75.60
44731;DHT22;30458;47.448;19.032;2023-07-20T20:22:27;26.80;75.70
44731;DHT22;30458;47.448;19.032;2023-07-20T20:32:27;26.90;76.20
44731;DHT22;30458;47.448;19.032;2023-07-20T20:42:28;26.70;75.50
44731;DHT22;30458;47.448;19.032;2023-07-20T20:52:29;26.50;75.70
44731;DHT22;30458;47.448;19.032;2023-07-20T21:02:30;26.60;75.10
44731;DHT22;30458;47.448;19.032;2023-07-20T21:12:30;26.50;75.50
44731;DHT22;30458;47.448;19.032;2023-07-20T21:22:34;26.10;76.20
44731;DHT22;30458;47.448;19.032;2023-07-20T21:32:37;25.90;76.40
44731;DHT22;30458;47.448;19.032;2023-07-20T21:42:38;25.90;76.30
44731;DHT22;30458;47.448;19.032;2023-07-20T21:52:38;25.90;76.40
44731;DHT22;30458;47.448;19.032;2023-07-20T22:02:39;25.70;76.70
44731;DHT22;30458;47.448;19.032;2023-07-20T22:12:42;25.70;77.40
44731;DHT22;30458;47.448;19.032;2023-07-20T22:22:47;25.80;79.10
44731;DHT22;30458;47.448;19.032;2023-07-20T22:32:51;25.70;79.30
44731;DHT22;30458;47.448;19.032;2023-07-20T22:42:54;25.50;78.40
44731;DHT22;30458;47.448;19.032;2023-07-20T22:52:59;25.20;80.30
44731;DHT22;30458;47.448;19.032;2023-07-20T23:03:00;24.90;81.20
44731;DHT22;30458;47.448;19.032;2023-07-20T23:13:01;24.60;81.80
44731;DHT22;30458;47.448;19.032;2023-07-20T23:23:02;24.50;82.20
44731;DHT22;30458;47.448;19.032;2023-07-20T23:33:03;24.30;83.10
44731;DHT22;30458;47.448;19.032;2023-07-20T23:43:07;23.90;84.20
44731;DHT22;30458;47.448;19.032;2023-07-20T23:53:10;23.60;84.40
